sensor_id;sensor_type;location;lat;lon;timestamp;pressure;altitude;pressure_sealevel;temperature;humidity
71948;BME280;63257;55.082;38.772;2022-12-29T00:01:57;99669.06;;;-0.25;82.53
71948;BME280;63257;55.082;38.772;2022-12-29T00:04:22;99654.53;;;-0.38;82.53
71948;BME280;63257;55.082;38.772;2022-12-29T00:06:49;99668.97;;;-0.19;82.18
71948;BME280;63257;55.082;38.772;2022-12-29T00:09:16;99662.19;;;-0.30;82.06
71948;BME280;63257;55.082;38.772;2022-12-29T00:11:42;99675.94;;;-0.24;82.21
71948;BME280;63257;55.082;38.772;2022-12-29T00:14:09;99679.31;;;-0.17;82.35
71948;BME280;63257;55.082;38.772;2022-12-29T00:16:53;99681.94;;;-0.19;82.13
71948;BME280;63257;55.082;38.772;2022-12-29T00:19:19;99678.38;;;-0.11;81.77
71948;BME280;63257;55.082;38.772;2022-12-29T00:22:04;99685.03;;;0.08;81.31
71948;BME280;63257;55.082;38.772;2022-12-29T00:24:48;99691.88;;;0.11;81.03
71948;BME280;63257;55.082;38.772;2022-12-29T00:27:32;99682.63;;;-0.07;81.08
71948;BME280;63257;55.082;38.772;2022-12-29T00:30:21;99661.88;;;-0.07;81.33
71948;BME280;63257;55.082;38.772;2022-12-29T00:33:32;99684.22;;;0.03;81.04
71948;BME280;63257;55.082;38.772;2022-12-29T00:36:34;99697.25;;;0.00;81.33
71948;BME280;63257;55.082;38.772;2022-12-29T00:39:07;99690.31;;;0.01;81.31
71948;BME280;63257;55.082;38.772;2022-12-29T00:41:52;99686.72;;;0.09;80.84
71948;BME280;63257;55.082;38.772;2022-12-29T00:44:37;99674.81;;;-0.03;80.63
71948;BME280;63257;55.082;38.772;2022-12-29T00:47:03;99707.47;;;0.11;80.49
71948;BME280;63257;55.082;38.772;2022-12-29T00:49:31;99685.09;;;0.04;80.70
71948;BME280;63257;55.082;38.772;2022-12-29T00:54:35;99678.25;;;-0.02;80.41
71948;BME280;63257;55.082;38.772;2022-12-29T00:57:02;99706.72;;;0.04;80.12
71948;BME280;63257;55.082;38.772;2022-12-29T00:59:29;99704.03;;;0.10;79.69
71948;BME280;63257;55.082;38.772;2022-12-29T01:01:56;99703.09;;;0.14;79.90
71948;BME280;63257;55.082;38.772;2022-12-29T01:04:24;99703.09;;;0.14;79.36
71948;BME280;63257;55.082;38.772;2022-12-29T01:06:51;99710.81;;;0.21;79.94
71948;BME280;63257;55.082;38.772;2022-12-29T01:09:18;99707.41;;;0.15;79.29
71948;BME280;63257;55.082;38.772;2022-12-29T01:12:04;99706.63;;;0.10;79.19
71948;BME280;63257;55.082;38.772;2022-12-29T01:14:31;99711.97;;;-0.02;79.47
71948;BME280;63257;55.082;38.772;2022-12-29T01:16:58;99709.28;;;0.06;79.57
71948;BME280;63257;55.082;38.772;2022-12-29T01:19:24;99709.28;;;0.06;79.36
71948;BME280;63257;55.082;38.772;2022-12-29T01:21:50;99711.00;;;0.05;78.61
71948;BME280;63257;55.082;38.772;2022-12-29T01:24:19;99713.78;;;-0.07;78.76
71948;BME280;63257;55.082;38.772;2022-12-29T01:26:46;99711.19;;;-0.07;78.51
71948;BME280;63257;55.082;38.772;2022-12-29T01:29:12;99715.59;;;-0.12;78.37
71948;BME280;63257;55.082;38.772;2022-12-29T01:31:38;99714.66;;;-0.10;78.20
71948;BME280;63257;55.082;38.772;2022-12-29T01:34:04;99721.69;;;-0.16;77.23
71948;BME280;63257;55.082;38.772;2022-12-29T01:36:32;99714.72;;;-0.13;77.28
71948;BME280;63257;55.082;38.772;2022-12-29T01:38:58;99720.63;;;-0.03;77.27
71948;BME280;63257;55.082;38.772;2022-12-29T01:41:25;99719.94;;;-0.14;76.69
71948;BME280;63257;55.082;38.772;2022-12-29T01:43:53;99710.59;;;-0.29;76.78
71948;BME280;63257;55.082;38.772;2022-12-29T01:49:20;99726.88;;;-0.18;76.50
71948;BME280;63257;55.082;38.772;2022-12-29T01:51:49;99726.09;;;-0.23;76.12
71948;BME280;63257;55.082;38.772;2022-12-29T01:54:22;99723.69;;;-0.39;75.26
71948;BME280;63257;55.082;38.772;2022-12-29T01:56:57;99724.53;;;-0.37;75.46
71948;BME280;63257;55.082;38.772;2022-12-29T01:59:30;99721.09;;;-0.39;75.34
71948;BME280;63257;55.082;38.772;2022-12-29T02:01:57;99729.03;;;-0.53;75.91
71948;BME280;63257;55.082;38.772;2022-12-29T02:04:24;99725.59;;;-0.55;76.53
71948;BME280;63257;55.082;38.772;2022-12-29T02:07:02;99731.69;;;-0.59;77.11
71948;BME280;63257;55.082;38.772;2022-12-29T02:09:30;99737.72;;;-0.58;76.66
71948;BME280;63257;55.082;38.772;2022-12-29T02:11:57;99739.47;;;-0.59;76.24
71948;BME280;63257;55.082;38.772;2022-12-29T02:14:23;99741.19;;;-0.59;75.63
71948;BME280;63257;55.082;38.772;2022-12-29T02:20:21;99761.88;;;-0.52;75.22
71948;BME280;63257;55.082;38.772;2022-12-29T02:26:15;99761.91;;;-0.55;74.95
71948;BME280;63257;55.082;38.772;2022-12-29T02:29:34;99744.72;;;-0.62;75.32
71948;BME280;63257;55.082;38.772;2022-12-29T02:32:03;99749.06;;;-0.67;75.18
71948;BME280;63257;55.082;38.772;2022-12-29T02:39:44;99754.47;;;-0.89;75.48
71948;BME280;63257;55.082;38.772;2022-12-29T02:47:44;99787.25;;;-0.84;75.18
71948;BME280;63257;55.082;38.772;2022-12-29T02:50:26;99763.25;;;-1.05;75.64
71948;BME280;63257;55.082;38.772;2022-12-29T02:53:06;99755.53;;;-1.13;76.09
71948;BME280;63257;55.082;38.772;2022-12-29T02:55:33;99759.91;;;-1.21;76.35
71948;BME280;63257;55.082;38.772;2022-12-29T03:00:39;99775.28;;;-0.95;75.77
71948;BME280;63257;55.082;38.772;2022-12-29T03:11:05;99768.31;;;-0.93;76.67
71948;BME280;63257;55.082;38.772;2022-12-29T03:13:39;99783.03;;;-0.98;76.33
71948;BME280;63257;55.082;38.772;2022-12-29T03:16:32;99775.31;;;-1.01;77.05
71948;BME280;63257;55.082;38.772;2022-12-29T03:19:07;99764.09;;;-1.01;76.84
71948;BME280;63257;55.082;38.772;2022-12-29T03:22:38;99773.63;;;-1.05;76.64
71948;BME280;63257;55.082;38.772;2022-12-29T03:25:05;99772.78;;;-1.06;76.54
71948;BME280;63257;55.082;38.772;2022-12-29T03:27:39;99776.22;;;-1.07;76.30
71948;BME280;63257;55.082;38.772;2022-12-29T03:30:07;99760.72;;;-1.14;76.17
71948;BME280;63257;55.082;38.772;2022-12-29T03:32:45;99777.13;;;-1.12;76.18
71948;BME280;63257;55.082;38.772;2022-12-29T03:35:17;99783.94;;;-1.02;75.79
71948;BME280;63257;55.082;38.772;2022-12-29T03:40:38;99781.50;;;-1.17;76.25
71948;BME280;63257;55.082;38.772;2022-12-29T03:43:06;99790.06;;;-1.11;76.29
71948;BME280;63257;55.082;38.772;2022-12-29T03:45:34;99787.44;;;-1.08;75.88
71948;BME280;63257;55.082;38.772;2022-12-29T03:48:00;99792.63;;;-1.08;76.62
71948;BME280;63257;55.082;38.772;2022-12-29T03:50:28;99784.06;;;-1.16;76.78
71948;BME280;63257;55.082;38.772;2022-12-29T03:52:53;99783.16;;;-1.12;77.06
71948;BME280;63257;55.082;38.772;2022-12-29T03:55:19;99796.97;;;-1.13;76.66
71948;BME280;63257;55.082;38.772;2022-12-29T03:57:45;99803.00;;;-1.08;76.31
71948;BME280;63257;55.082;38.772;2022-12-29T04:00:16;99805.59;;;-1.09;76.66
71948;BME280;63257;55.082;38.772;2022-12-29T04:02:44;99809.78;;;-0.94;76.44
71948;BME280;63257;55.082;38.772;2022-12-29T04:05:15;99811.53;;;-0.93;76.17
71948;BME280;63257;55.082;38.772;2022-12-29T04:07:41;99811.63;;;-1.06;76.65
71948;BME280;63257;55.082;38.772;2022-12-29T04:10:08;99809.00;;;-1.03;76.21
71948;BME280;63257;55.082;38.772;2022-12-29T04:12:34;99818.41;;;-0.91;76.21
71948;BME280;63257;55.082;38.772;2022-12-29T04:15:01;99821.84;;;-0.89;76.21
71948;BME280;63257;55.082;38.772;2022-12-29T04:17:28;99822.84;;;-1.05;76.45
71948;BME280;63257;55.082;38.772;2022-12-29T04:19:54;99827.97;;;-1.02;76.58
71948;BME280;63257;55.082;38.772;2022-12-29T04:22:41;99835.06;;;-1.24;77.27
71948;BME280;63257;55.082;38.772;2022-12-29T04:25:07;99833.25;;;-1.13;77.24
71948;BME280;63257;55.082;38.772;2022-12-29T04:27:33;99816.97;;;-1.27;77.05
71948;BME280;63257;55.082;38.772;2022-12-29T04:30:18;99819.50;;;-1.18;77.22
71948;BME280;63257;55.082;38.772;2022-12-29T04:32:55;99829.75;;;-1.06;76.56
71948;BME280;63257;55.082;38.772;2022-12-29T04:35:21;99819.50;;;-1.18;76.96
71948;BME280;63257;55.082;38.772;2022-12-29T04:37:47;99809.19;;;-1.27;76.41
71948;BME280;63257;55.082;38.772;2022-12-29T04:40:13;99833.22;;;-1.08;76.36
71948;BME280;63257;55.082;38.772;2022-12-29T04:42:39;99816.94;;;-1.26;76.24
71948;BME280;63257;55.082;38.772;2022-12-29T04:45:07;99841.91;;;-1.14;75.93
71948;BME280;63257;55.082;38.772;2022-12-29T04:47:49;99834.88;;;-0.99;75.60
71948;BME280;63257;55.082;38.772;2022-12-29T04:50:21;99823.72;;;-1.09;75.94
71948;BME280;63257;55.082;38.772;2022-12-29T04:52:54;99828.75;;;-0.92;75.70
71948;BME280;63257;55.082;38.772;2022-12-29T04:55:21;99833.84;;;-0.80;75.07
71948;BME280;63257;55.082;38.772;2022-12-29T04:57:47;99835.56;;;-0.77;74.91
71948;BME280;63257;55.082;38.772;2022-12-29T05:00:17;99808.84;;;-0.86;75.13
71948;BME280;63257;55.082;38.772;2022-12-29T05:02:43;99824.28;;;-0.69;75.74
71948;BME280;63257;55.082;38.772;2022-12-29T05:05:09;99826.91;;;-0.75;76.13
71948;BME280;63257;55.082;38.772;2022-12-29T05:07:40;99811.41;;;-0.81;75.55
71948;BME280;63257;55.082;38.772;2022-12-29T05:10:06;99827.69;;;-0.66;75.44
71948;BME280;63257;55.082;38.772;2022-12-29T05:12:35;99835.44;;;-0.65;75.68
71948;BME280;63257;55.082;38.772;2022-12-29T05:15:01;99822.59;;;-0.74;75.28
71948;BME280;63257;55.082;38.772;2022-12-29T05:17:29;99842.41;;;-0.72;75.76
71948;BME280;63257;55.082;38.772;2022-12-29T05:19:56;99841.63;;;-0.78;76.04
71948;BME280;63257;55.082;38.772;2022-12-29T05:22:22;99833.03;;;-0.83;75.69
71948;BME280;63257;55.082;38.772;2022-12-29T05:24:48;99850.28;;;-0.84;75.81
71948;BME280;63257;55.082;38.772;2022-12-29T05:27:15;99845.09;;;-0.79;75.63
71948;BME280;63257;55.082;38.772;2022-12-29T05:30:04;99857.94;;;-0.65;75.93
71948;BME280;63257;55.082;38.772;2022-12-29T05:32:30;99869.22;;;-0.71;74.90
71948;BME280;63257;55.082;38.772;2022-12-29T05:34:56;99846.91;;;-0.92;75.06
71948;BME280;63257;55.082;38.772;2022-12-29T05:37:23;99863.31;;;-0.90;75.59
71948;BME280;63257;55.082;38.772;2022-12-29T05:39:49;99877.09;;;-0.85;75.50
71948;BME280;63257;55.082;38.772;2022-12-29T05:42:15;99875.38;;;-0.86;75.90
71948;BME280;63257;55.082;38.772;2022-12-29T05:44:51;99868.44;;;-0.84;75.26
71948;BME280;63257;55.082;38.772;2022-12-29T05:47:44;99890.88;;;-0.81;75.44
71948;BME280;63257;55.082;38.772;2022-12-29T05:50:36;99884.88;;;-0.83;75.91
71948;BME280;63257;55.082;38.772;2022-12-29T05:53:11;99884.97;;;-0.96;75.78
71948;BME280;63257;55.082;38.772;2022-12-29T05:55:37;99892.75;;;-0.99;75.84
71948;BME280;63257;55.082;38.772;2022-12-29T05:58:04;99894.56;;;-1.13;76.88
71948;BME280;63257;55.082;38.772;2022-12-29T06:00:30;99878.16;;;-1.17;76.91
71948;BME280;63257;55.082;38.772;2022-12-29T06:02:57;99885.91;;;-1.09;76.53
71948;BME280;63257;55.082;38.772;2022-12-29T06:05:23;99900.53;;;-0.97;76.58
71948;BME280;63257;55.082;38.772;2022-12-29T06:07:48;99885.91;;;-1.09;77.03
71948;BME280;63257;55.082;38.772;2022-12-29T06:10:16;99882.47;;;-1.10;76.80
71948;BME280;63257;55.082;38.772;2022-12-29T06:12:49;99881.53;;;-1.01;75.99
71948;BME280;63257;55.082;38.772;2022-12-29T06:15:17;99887.66;;;-1.10;76.53
71948;BME280;63257;55.082;38.772;2022-12-29T06:17:44;99895.41;;;-1.13;76.21
71948;BME280;63257;55.082;38.772;2022-12-29T06:20:10;99886.09;;;-1.42;76.68
71948;BME280;63257;55.082;38.772;2022-12-29T06:22:37;99881.84;;;-1.55;77.09
71948;BME280;63257;55.082;38.772;2022-12-29T06:25:03;99903.38;;;-1.45;76.87
71948;BME280;63257;55.082;38.772;2022-12-29T06:27:32;99909.41;;;-1.46;77.27
71948;BME280;63257;55.082;38.772;2022-12-29T06:29:57;99892.22;;;-1.61;77.41
71948;BME280;63257;55.082;38.772;2022-12-29T06:32:23;99901.69;;;-1.54;77.17
71948;BME280;63257;55.082;38.772;2022-12-29T06:34:52;99906.84;;;-1.46;77.03
71948;BME280;63257;55.082;38.772;2022-12-29T06:37:18;99896.44;;;-1.43;76.48
71948;BME280;63257;55.082;38.772;2022-12-29T06:39:45;99888.66;;;-1.35;76.29
71948;BME280;63257;55.082;38.772;2022-12-29T06:42:13;99901.50;;;-1.18;75.70
71948;BME280;63257;55.082;38.772;2022-12-29T06:45:11;99895.50;;;-1.24;75.89
71948;BME280;63257;55.082;38.772;2022-12-29T06:47:37;99898.81;;;-1.06;74.98
71948;BME280;63257;55.082;38.772;2022-12-29T06:50:04;99886.81;;;-1.21;75.15
71948;BME280;63257;55.082;38.772;2022-12-29T06:52:30;99905.75;;;-1.07;75.16
71948;BME280;63257;55.082;38.772;2022-12-29T06:54:56;99891.91;;;-1.04;74.61
71948;BME280;63257;55.082;38.772;2022-12-29T06:57:21;99890.22;;;-1.07;74.40
71948;BME280;63257;55.082;38.772;2022-12-29T06:59:47;99890.31;;;-1.24;75.05
71948;BME280;63257;55.082;38.772;2022-12-29T07:02:13;99904.06;;;-1.11;74.76
71948;BME280;63257;55.082;38.772;2022-12-29T07:04:40;99899.72;;;-1.07;74.77
71948;BME280;63257;55.082;38.772;2022-12-29T07:07:06;99892.81;;;-1.13;74.37
71948;BME280;63257;55.082;38.772;2022-12-29T07:09:31;99908.38;;;-1.11;74.21
71948;BME280;63257;55.082;38.772;2022-12-29T07:11:57;99918.75;;;-1.16;74.08
71948;BME280;63257;55.082;38.772;2022-12-29T07:14:24;99911.78;;;-1.05;74.42
71948;BME280;63257;55.082;38.772;2022-12-29T07:16:50;99886.75;;;-1.04;74.39
71948;BME280;63257;55.082;38.772;2022-12-29T07:19:16;99916.03;;;-0.93;74.03
71948;BME280;63257;55.082;38.772;2022-12-29T07:21:42;99915.16;;;-0.96;73.99
71948;BME280;63257;55.082;38.772;2022-12-29T07:24:07;99917.72;;;-0.89;73.91
71948;BME280;63257;55.082;38.772;2022-12-29T07:26:34;99924.53;;;-0.75;73.86
71948;BME280;63257;55.082;38.772;2022-12-29T07:29:02;99918.53;;;-0.80;74.24
71948;BME280;63257;55.082;38.772;2022-12-29T07:31:28;99919.34;;;-0.74;73.14
71948;BME280;63257;55.082;38.772;2022-12-29T07:33:54;99928.91;;;-0.80;73.02
71948;BME280;63257;55.082;38.772;2022-12-29T07:36:21;99913.31;;;-0.74;73.23
71948;BME280;63257;55.082;38.772;2022-12-29T07:38:47;99928.81;;;-0.70;72.54
71948;BME280;63257;55.082;38.772;2022-12-29T07:41:13;99924.47;;;-0.69;72.96
71948;BME280;63257;55.082;38.772;2022-12-29T07:43:39;99933.16;;;-0.73;73.12
71948;BME280;63257;55.082;38.772;2022-12-29T07:46:25;99918.31;;;-0.53;72.83
71948;BME280;63257;55.082;38.772;2022-12-29T07:48:51;99928.69;;;-0.49;72.41
71948;BME280;63257;55.082;38.772;2022-12-29T07:51:16;99933.00;;;-0.53;73.01
71948;BME280;63257;55.082;38.772;2022-12-29T07:53:42;99929.53;;;-0.49;72.61
71948;BME280;63257;55.082;38.772;2022-12-29T07:56:08;99935.66;;;-0.61;73.60
71948;BME280;63257;55.082;38.772;2022-12-29T07:58:34;99933.84;;;-0.51;73.13
71948;BME280;63257;55.082;38.772;2022-12-29T08:01:00;99941.78;;;-0.68;73.00
71948;BME280;63257;55.082;38.772;2022-12-29T08:03:26;99916.06;;;-0.97;73.90
71948;BME280;63257;55.082;38.772;2022-12-29T08:05:52;99950.63;;;-1.00;74.25
71948;BME280;63257;55.082;38.772;2022-12-29T08:08:18;99940.22;;;-0.91;74.19
71948;BME280;63257;55.082;38.772;2022-12-29T08:10:44;99953.09;;;-0.81;74.47
71948;BME280;63257;55.082;38.772;2022-12-29T08:13:10;99947.00;;;-0.76;74.00
71948;BME280;63257;55.082;38.772;2022-12-29T08:15:37;99926.34;;;-0.90;74.37
71948;BME280;63257;55.082;38.772;2022-12-29T08:18:03;99949.59;;;-0.77;74.80
71948;BME280;63257;55.082;38.772;2022-12-29T08:20:29;99940.06;;;-0.72;74.34
71948;BME280;63257;55.082;38.772;2022-12-29T08:22:55;99937.56;;;-0.84;74.49
71948;BME280;63257;55.082;38.772;2022-12-29T08:25:21;99941.72;;;-0.62;74.52
71948;BME280;63257;55.082;38.772;2022-12-29T08:27:47;99939.16;;;-0.62;74.17
71948;BME280;63257;55.082;38.772;2022-12-29T08:30:13;99936.47;;;-0.54;73.91
71948;BME280;63257;55.082;38.772;2022-12-29T08:32:39;99931.38;;;-0.62;73.61
71948;BME280;63257;55.082;38.772;2022-12-29T08:35:05;99944.19;;;-0.46;73.89
71948;BME280;63257;55.082;38.772;2022-12-29T08:37:32;99935.69;;;-0.64;74.29
71948;BME280;63257;55.082;38.772;2022-12-29T08:39:58;99943.22;;;-0.35;73.90
71948;BME280;63257;55.082;38.772;2022-12-29T08:42:25;99950.94;;;-0.25;72.87
71948;BME280;63257;55.082;38.772;2022-12-29T08:44:57;99931.94;;;-0.29;72.98
71948;BME280;63257;55.082;38.772;2022-12-29T08:47:24;99918.28;;;-0.46;73.41
71948;BME280;63257;55.082;38.772;2022-12-29T08:49:50;99942.16;;;-0.10;72.72
71948;BME280;63257;55.082;38.772;2022-12-29T08:52:16;99941.22;;;-0.05;72.70
71948;BME280;63257;55.082;38.772;2022-12-29T08:54:42;99933.69;;;-0.31;72.69
71948;BME280;63257;55.082;38.772;2022-12-29T08:57:08;99931.19;;;-0.43;73.33
71948;BME280;63257;55.082;38.772;2022-12-29T08:59:39;99933.00;;;-0.52;73.73
71948;BME280;63257;55.082;38.772;2022-12-29T09:02:08;99928.75;;;-0.59;73.82
71948;BME280;63257;55.082;38.772;2022-12-29T09:04:38;99918.50;;;-0.77;73.23
71948;BME280;63257;55.082;38.772;2022-12-29T09:07:04;99927.09;;;-0.72;74.40
71948;BME280;63257;55.082;38.772;2022-12-29T09:09:37;99931.41;;;-0.70;74.03
71948;BME280;63257;55.082;38.772;2022-12-29T09:12:02;99928.00;;;-0.75;74.28
71948;BME280;63257;55.082;38.772;2022-12-29T09:14:28;99909.00;;;-0.80;74.22
71948;BME280;63257;55.082;38.772;2022-12-29T09:16:54;99918.47;;;-0.73;74.22
71948;BME280;63257;55.082;38.772;2022-12-29T09:19:39;99941.72;;;-0.65;73.77
71948;BME280;63257;55.082;38.772;2022-12-29T09:22:05;99938.25;;;-0.58;73.37
71948;BME280;63257;55.082;38.772;2022-12-29T09:24:31;99939.94;;;-0.54;73.36
71948;BME280;63257;55.082;38.772;2022-12-29T09:26:57;99923.56;;;-0.63;73.13
71948;BME280;63257;55.082;38.772;2022-12-29T09:29:23;99930.50;;;-0.64;73.14
71948;BME280;63257;55.082;38.772;2022-12-29T09:31:49;99939.09;;;-0.59;73.79
71948;BME280;63257;55.082;38.772;2022-12-29T09:34:15;99939.03;;;-0.53;73.39
71948;BME280;63257;55.082;38.772;2022-12-29T09:36:41;99932.84;;;-0.36;73.14
71948;BME280;63257;55.082;38.772;2022-12-29T09:39:07;99933.53;;;-0.15;72.12
71948;BME280;63257;55.082;38.772;2022-12-29T09:41:42;99931.63;;;0.04;71.24
71948;BME280;63257;55.082;38.772;2022-12-29T09:44:38;99935.88;;;0.11;71.22
71948;BME280;63257;55.082;38.772;2022-12-29T09:47:11;99928.88;;;0.17;70.77
71948;BME280;63257;55.082;38.772;2022-12-29T09:49:40;99935.72;;;0.23;70.25
71948;BME280;63257;55.082;38.772;2022-12-29T09:52:14;99933.94;;;0.30;70.20
71948;BME280;63257;55.082;38.772;2022-12-29T09:57:25;99930.81;;;-0.03;71.28
71948;BME280;63257;55.082;38.772;2022-12-29T09:59:57;99940.22;;;0.09;70.45
71948;BME280;63257;55.082;38.772;2022-12-29T10:04:54;99945.41;;;0.10;70.28
71948;BME280;63257;55.082;38.772;2022-12-29T10:07:36;99940.34;;;-0.02;70.59
71948;BME280;63257;55.082;38.772;2022-12-29T10:10:14;99946.31;;;0.05;71.57
71948;BME280;63257;55.082;38.772;2022-12-29T10:20:57;99951.56;;;0.02;71.63
71948;BME280;63257;55.082;38.772;2022-12-29T10:25:56;99949.97;;;-0.15;72.52
71948;BME280;63257;55.082;38.772;2022-12-29T10:28:34;99947.28;;;-0.07;72.22
71948;BME280;63257;55.082;38.772;2022-12-29T10:31:05;99953.16;;;0.12;72.02
71948;BME280;63257;55.082;38.772;2022-12-29T10:33:40;99956.63;;;0.12;71.05
71948;BME280;63257;55.082;38.772;2022-12-29T10:36:18;99947.03;;;0.17;70.78
71948;BME280;63257;55.082;38.772;2022-12-29T10:42:17;99954.66;;;0.36;70.49
71948;BME280;63257;55.082;38.772;2022-12-29T10:44:44;99948.72;;;0.22;70.61
71948;BME280;63257;55.082;38.772;2022-12-29T10:47:15;99955.66;;;0.23;71.09
71948;BME280;63257;55.082;38.772;2022-12-29T10:49:42;99950.41;;;0.29;70.81
71948;BME280;63257;55.082;38.772;2022-12-29T10:52:11;99948.69;;;0.28;70.57
71948;BME280;63257;55.082;38.772;2022-12-29T10:55:44;99948.66;;;0.29;70.83
71948;BME280;63257;55.082;38.772;2022-12-29T10:57:45;99955.66;;;0.23;71.14
71948;BME280;63257;55.082;38.772;2022-12-29T11:05:33;99938.44;;;0.15;70.60
71948;BME280;63257;55.082;38.772;2022-12-29T11:08:08;99944.50;;;0.13;71.01
71948;BME280;63257;55.082;38.772;2022-12-29T11:10:37;99947.81;;;0.29;71.16
71948;BME280;63257;55.082;38.772;2022-12-29T11:13:14;99949.47;;;0.35;70.35
71948;BME280;63257;55.082;38.772;2022-12-29T11:15:48;99946.84;;;0.36;70.56
71948;BME280;63257;55.082;38.772;2022-12-29T11:18:41;99934.69;;;0.41;70.33
71948;BME280;63257;55.082;38.772;2022-12-29T11:21:32;99949.38;;;0.42;70.34
71948;BME280;63257;55.082;38.772;2022-12-29T11:24:02;99940.72;;;0.42;70.50
71948;BME280;63257;55.082;38.772;2022-12-29T11:26:29;99950.19;;;0.47;70.21
71948;BME280;63257;55.082;38.772;2022-12-29T11:31:41;99941.44;;;0.53;69.78
71948;BME280;63257;55.082;38.772;2022-12-29T11:34:08;99944.84;;;0.60;69.67
71948;BME280;63257;55.082;38.772;2022-12-29T11:36:35;99931.00;;;0.56;69.74
71948;BME280;63257;55.082;38.772;2022-12-29T11:39:03;99930.94;;;0.64;69.37
71948;BME280;63257;55.082;38.772;2022-12-29T11:41:31;99937.88;;;0.63;69.51
71948;BME280;63257;55.082;38.772;2022-12-29T11:43:59;99937.81;;;0.68;68.92
71948;BME280;63257;55.082;38.772;2022-12-29T11:46:34;99932.41;;;0.83;68.88
71948;BME280;63257;55.082;38.772;2022-12-29T11:49:02;99933.41;;;0.75;69.34
71948;BME280;63257;55.082;38.772;2022-12-29T11:54:32;99939.28;;;0.88;68.82
71948;BME280;63257;55.082;38.772;2022-12-29T11:57:15;99938.47;;;0.84;68.87
71948;BME280;63257;55.082;38.772;2022-12-29T11:59:52;99935.97;;;0.76;69.21
71948;BME280;63257;55.082;38.772;2022-12-29T12:07:47;99955.56;;;1.00;69.04
71948;BME280;63257;55.082;38.772;2022-12-29T12:10:30;99950.31;;;1.05;68.96
71948;BME280;63257;55.082;38.772;2022-12-29T12:13:11;99958.13;;;1.04;68.48
71948;BME280;63257;55.082;38.772;2022-12-29T12:15:52;99931.41;;;0.94;68.90
71948;BME280;63257;55.082;38.772;2022-12-29T12:18:28;99958.22;;;0.96;68.77
71948;BME280;63257;55.082;38.772;2022-12-29T12:20:58;99963.53;;;0.90;68.83
71948;BME280;63257;55.082;38.772;2022-12-29T12:23:40;99940.19;;;0.83;68.79
71948;BME280;63257;55.082;38.772;2022-12-29T12:26:16;99960.84;;;0.94;69.22
71948;BME280;63257;55.082;38.772;2022-12-29T12:28:55;99959.97;;;0.95;69.15
71948;BME280;63257;55.082;38.772;2022-12-29T12:34:37;99970.19;;;1.09;68.35
71948;BME280;63257;55.082;38.772;2022-12-29T12:45:36;99967.75;;;0.95;68.76
71948;BME280;63257;55.082;38.772;2022-12-29T12:48:40;99966.94;;;0.92;68.78
71948;BME280;63257;55.082;38.772;2022-12-29T12:59:05;99969.84;;;0.70;70.25
71948;BME280;63257;55.082;38.772;2022-12-29T13:01:46;99956.91;;;0.64;70.08
71948;BME280;63257;55.082;38.772;2022-12-29T13:04:37;99969.91;;;0.64;70.96
71948;BME280;63257;55.082;38.772;2022-12-29T13:10:19;99974.97;;;0.75;70.28
71948;BME280;63257;55.082;38.772;2022-12-29T13:21:31;99968.75;;;0.85;70.40
71948;BME280;63257;55.082;38.772;2022-12-29T13:27:09;99966.19;;;0.83;70.54
71948;BME280;63257;55.082;38.772;2022-12-29T13:30:05;99978.22;;;0.89;70.64
71948;BME280;63257;55.082;38.772;2022-12-29T13:32:48;99960.09;;;0.84;70.52
71948;BME280;63257;55.082;38.772;2022-12-29T13:38:12;99973.81;;;0.96;70.94
71948;BME280;63257;55.082;38.772;2022-12-29T13:40:44;99972.03;;;0.99;70.83
71948;BME280;63257;55.082;38.772;2022-12-29T13:43:13;99969.28;;;1.12;70.84
71948;BME280;63257;55.082;38.772;2022-12-29T13:45:42;99951.22;;;1.01;70.24
71948;BME280;63257;55.082;38.772;2022-12-29T13:48:23;99975.31;;;1.15;70.46
71948;BME280;63257;55.082;38.772;2022-12-29T13:50:55;99969.19;;;1.20;70.48
71948;BME280;63257;55.082;38.772;2022-12-29T13:53:58;99970.88;;;1.21;69.57
71948;BME280;63257;55.082;38.772;2022-12-29T13:56:45;99970.13;;;1.12;69.76
71948;BME280;63257;55.082;38.772;2022-12-29T13:59:17;99971.94;;;1.06;70.71
71948;BME280;63257;55.082;38.772;2022-12-29T14:01:59;99974.66;;;0.99;70.79
71948;BME280;63257;55.082;38.772;2022-12-29T14:04:30;99948.00;;;0.82;70.95
71948;BME280;63257;55.082;38.772;2022-12-29T14:07:03;99948.88;;;0.84;70.53
71948;BME280;63257;55.082;38.772;2022-12-29T14:09:45;99966.13;;;0.90;71.20
71948;BME280;63257;55.082;38.772;2022-12-29T14:14:47;99955.81;;;0.82;71.28
71948;BME280;63257;55.082;38.772;2022-12-29T14:17:20;99967.03;;;0.86;71.26
71948;BME280;63257;55.082;38.772;2022-12-29T14:19:51;99971.44;;;0.80;71.66
71948;BME280;63257;55.082;38.772;2022-12-29T14:22:28;99963.72;;;0.73;71.79
71948;BME280;63257;55.082;38.772;2022-12-29T14:24:54;99960.22;;;0.75;71.95
71948;BME280;63257;55.082;38.772;2022-12-29T14:29:47;99952.41;;;0.77;72.07
71948;BME280;63257;55.082;38.772;2022-12-29T14:34:57;99959.38;;;0.75;71.67
71948;BME280;63257;55.082;38.772;2022-12-29T14:37:31;99959.41;;;0.73;72.23
71948;BME280;63257;55.082;38.772;2022-12-29T14:48:42;99953.44;;;0.65;72.43
71948;BME280;63257;55.082;38.772;2022-12-29T14:51:38;99958.59;;;0.68;72.47
71948;BME280;63257;55.082;38.772;2022-12-29T14:57:01;99966.38;;;0.68;72.51
71948;BME280;63257;55.082;38.772;2022-12-29T14:59:29;99961.22;;;0.66;72.65
71948;BME280;63257;55.082;38.772;2022-12-29T15:01:57;99970.72;;;0.69;72.42
71948;BME280;63257;55.082;38.772;2022-12-29T15:04:31;99953.47;;;0.60;72.41
71948;BME280;63257;55.082;38.772;2022-12-29T15:06:59;99962.84;;;0.74;72.23
71948;BME280;63257;55.082;38.772;2022-12-29T15:09:43;99971.38;;;0.83;72.18
71948;BME280;63257;55.082;38.772;2022-12-29T15:12:35;99968.75;;;0.85;72.15
71948;BME280;63257;55.082;38.772;2022-12-29T15:17:42;99962.78;;;0.77;72.32
71948;BME280;63257;55.082;38.772;2022-12-29T15:20:34;99960.09;;;0.84;72.47
71948;BME280;63257;55.082;38.772;2022-12-29T15:23:21;99960.19;;;0.80;72.55
71948;BME280;63257;55.082;38.772;2022-12-29T15:25:55;99935.22;;;0.66;72.57
71948;BME280;63257;55.082;38.772;2022-12-29T15:28:22;99969.53;;;0.92;72.03